sensor_id;sensor_type;location;lat;lon;timestamp;temperature;humidity
5461;DHT22;2753;49.196;8.286;2024-02-23T00:01:02;9.00;99.90
5461;DHT22;2753;49.196;8.286;2024-02-23T00:03:28;9.00;99.90
5461;DHT22;2753;49.196;8.286;2024-02-23T00:05:54;9.00;99.90
5461;DHT22;2753;49.196;8.286;2024-02-23T00:08:19;9.00;99.90
5461;DHT22;2753;49.196;8.286;2024-02-23T00:10:45;8.90;99.90
5461;DHT22;2753;49.196;8.286;2024-02-23T00:13:11;8.90;99.90
5461;DHT22;2753;49.196;8.286;2024-02-23T00:15:37;8.90;99.90
5461;DHT22;2753;49.196;8.286;2024-02-23T00:18:03;8.90;99.90
5461;DHT22;2753;49.196;8.286;2024-02-23T00:20:29;8.90;99.90
5461;DHT22;2753;49.196;8.286;2024-02-23T00:22:58;8.80;99.90
5461;DHT22;2753;49.196;8.286;2024-02-23T00:25:23;8.90;99.90
5461;DHT22;2753;49.196;8.286;2024-02-23T00:27:49;8.90;99.90
5461;DHT22;2753;49.196;8.286;2024-02-23T00:30:15;8.80;99.90
5461;DHT22;2753;49.196;8.286;2024-02-23T00:32:41;8.80;99.90
5461;DHT22;2753;49.196;8.286;2024-02-23T00:35:07;8.80;99.90
5461;DHT22;2753;49.196;8.286;2024-02-23T00:37:32;8.70;99.90
5461;DHT22;2753;49.196;8.286;2024-02-23T00:40:05;8.70;99.90
5461;DHT22;2753;49.196;8.286;2024-02-23T00:42:31;8.70;99.90
5461;DHT22;2753;49.196;8.286;2024-02-23T00:44:56;8.70;99.90
5461;DHT22;2753;49.196;8.286;2024-02-23T00:47:22;8.70;99.90
5461;DHT22;2753;49.196;8.286;2024-02-23T00:49:48;8.70;99.90
5461;DHT22;2753;49.196;8.286;2024-02-23T00:52:14;8.70;99.90
5461;DHT22;2753;49.196;8.286;2024-02-23T00:54:40;8.70;99.90
5461;DHT22;2753;49.196;8.286;2024-02-23T00:57:06;8.60;99.90
5461;DHT22;2753;49.196;8.286;2024-02-23T00:59:31;8.60;99.90
5461;DHT22;2753;49.196;8.286;2024-02-23T01:01:57;8.60;99.90
5461;DHT22;2753;49.196;8.286;2024-02-23T01:04:23;8.60;99.90
5461;DHT22;2753;49.196;8.286;2024-02-23T01:06:49;8.50;99.90
5461;DHT22;2753;49.196;8.286;2024-02-23T01:09:15;8.50;99.90
5461;DHT22;2753;49.196;8.286;2024-02-23T01:11:42;8.50;99.90
5461;DHT22;2753;49.196;8.286;2024-02-23T01:14:08;8.40;99.90
5461;DHT22;2753;49.196;8.286;2024-02-23T01:16:33;8.40;99.90
5461;DHT22;2753;49.196;8.286;2024-02-23T01:18:59;8.40;99.90
5461;DHT22;2753;49.196;8.286;2024-02-23T01:21:24;8.40;99.90
5461;DHT22;2753;49.196;8.286;2024-02-23T01:23:50;8.30;99.90
5461;DHT22;2753;49.196;8.286;2024-02-23T01:26:16;8.30;99.90
5461;DHT22;2753;49.196;8.286;2024-02-23T01:28:41;8.30;99.90
5461;DHT22;2753;49.196;8.286;2024-02-23T01:31:11;8.30;99.90
5461;DHT22;2753;49.196;8.286;2024-02-23T01:33:37;8.30;99.90
5461;DHT22;2753;49.196;8.286;2024-02-23T01:36:05;8.20;99.90
5461;DHT22;2753;49.196;8.286;2024-02-23T01:38:30;8.30;99.90
5461;DHT22;2753;49.196;8.286;2024-02-23T01:41:00;8.30;99.90
5461;DHT22;2753;49.196;8.286;2024-02-23T01:43:26;8.20;99.90
5461;DHT22;2753;49.196;8.286;2024-02-23T01:45:52;8.20;99.90
5461;DHT22;2753;49.196;8.286;2024-02-23T01:48:19;8.20;99.90
5461;DHT22;2753;49.196;8.286;2024-02-23T01:50:44;8.20;99.90
5461;DHT22;2753;49.196;8.286;2024-02-23T01:53:12;8.20;99.90
5461;DHT22;2753;49.196;8.286;2024-02-23T01:55:41;8.20;99.90
5461;DHT22;2753;49.196;8.286;2024-02-23T01:58:07;8.20;99.90
5461;DHT22;2753;49.196;8.286;2024-02-23T02:00:34;8.20;99.90
5461;DHT22;2753;49.196;8.286;2024-02-23T02:03:04;8.20;99.90
5461;DHT22;2753;49.196;8.286;2024-02-23T02:05:30;8.20;99.90
5461;DHT22;2753;49.196;8.286;2024-02-23T02:07:56;8.20;99.90
5461;DHT22;2753;49.196;8.286;2024-02-23T02:10:25;8.10;99.90
5461;DHT22;2753;49.196;8.286;2024-02-23T02:12:52;8.10;99.90
5461;DHT22;2753;49.196;8.286;2024-02-23T02:15:18;8.10;99.90
5461;DHT22;2753;49.196;8.286;2024-02-23T02:17:44;8.10;99.90
5461;DHT22;2753;49.196;8.286;2024-02-23T02:20:12;8.00;99.90
5461;DHT22;2753;49.196;8.286;2024-02-23T02:22:38;8.10;99.90
5461;DHT22;2753;49.196;8.286;2024-02-23T02:25:04;8.10;99.90
5461;DHT22;2753;49.196;8.286;2024-02-23T02:27:30;8.00;99.90
5461;DHT22;2753;49.196;8.286;2024-02-23T02:29:56;8.00;99.90
5461;DHT22;2753;49.196;8.286;2024-02-23T02:32:23;8.00;99.90
5461;DHT22;2753;49.196;8.286;2024-02-23T02:34:48;8.00;99.90
5461;DHT22;2753;49.196;8.286;2024-02-23T02:37:14;8.00;99.90
5461;DHT22;2753;49.196;8.286;2024-02-23T02:39:40;8.00;99.90
5461;DHT22;2753;49.196;8.286;2024-02-23T02:42:06;8.00;99.90
5461;DHT22;2753;49.196;8.286;2024-02-23T02:44:31;8.00;99.90
5461;DHT22;2753;49.196;8.286;2024-02-23T02:46:57;8.00;99.90
5461;DHT22;2753;49.196;8.286;2024-02-23T02:49:23;7.90;99.90
5461;DHT22;2753;49.196;8.286;2024-02-23T02:51:49;7.90;99.90
5461;DHT22;2753;49.196;8.286;2024-02-23T02:54:15;7.90;99.90
5461;DHT22;2753;49.196;8.286;2024-02-23T02:56:46;7.90;99.90
5461;DHT22;2753;49.196;8.286;2024-02-23T02:59:13;7.90;99.90
5461;DHT22;2753;49.196;8.286;2024-02-23T03:01:39;7.90;99.90
5461;DHT22;2753;49.196;8.286;2024-02-23T03:04:05;7.90;99.90
5461;DHT22;2753;49.196;8.286;2024-02-23T03:06:31;7.90;99.90
5461;DHT22;2753;49.196;8.286;2024-02-23T03:08:57;7.90;99.90
5461;DHT22;2753;49.196;8.286;2024-02-23T03:11:22;7.80;99.90
5461;DHT22;2753;49.196;8.286;2024-02-23T03:13:48;7.80;99.90
5461;DHT22;2753;49.196;8.286;2024-02-23T03:16:17;7.80;99.90
5461;DHT22;2753;49.196;8.286;2024-02-23T03:18:43;7.80;99.90
5461;DHT22;2753;49.196;8.286;2024-02-23T03:21:09;7.80;99.90
5461;DHT22;2753;49.196;8.286;2024-02-23T03:23:36;7.80;99.90
5461;DHT22;2753;49.196;8.286;2024-02-23T03:26:03;7.70;99.90
5461;DHT22;2753;49.196;8.286;2024-02-23T03:28:28;7.70;99.90
5461;DHT22;2753;49.196;8.286;2024-02-23T03:30:54;7.80;99.90
5461;DHT22;2753;49.196;8.286;2024-02-23T03:33:20;7.80;99.90
5461;DHT22;2753;49.196;8.286;2024-02-23T03:35:46;7.70;99.90
5461;DHT22;2753;49.196;8.286;2024-02-23T03:38:11;7.70;99.90
5461;DHT22;2753;49.196;8.286;2024-02-23T03:40:41;7.70;99.90
5461;DHT22;2753;49.196;8.286;2024-02-23T03:43:06;7.60;99.90
5461;DHT22;2753;49.196;8.286;2024-02-23T03:45:32;7.60;99.90
5461;DHT22;2753;49.196;8.286;2024-02-23T03:47:58;7.70;99.90
5461;DHT22;2753;49.196;8.286;2024-02-23T03:50:24;7.70;99.90
5461;DHT22;2753;49.196;8.286;2024-02-23T03:52:56;7.70;99.90
5461;DHT22;2753;49.196;8.286;2024-02-23T03:55:22;7.60;99.90
5461;DHT22;2753;49.196;8.286;2024-02-23T03:57:48;7.70;99.90
5461;DHT22;2753;49.196;8.286;2024-02-23T04:00:14;7.60;99.90
5461;DHT22;2753;49.196;8.286;2024-02-23T04:02:40;7.50;99.90
5461;DHT22;2753;49.196;8.286;2024-02-23T04:05:09;7.50;99.90
5461;DHT22;2753;49.196;8.286;2024-02-23T04:07:35;7.50;99.90
5461;DHT22;2753;49.196;8.286;2024-02-23T04:10:00;7.50;99.90
5461;DHT22;2753;49.196;8.286;2024-02-23T04:12:29;7.40;99.90
5461;DHT22;2753;49.196;8.286;2024-02-23T04:14:56;7.40;99.90
5461;DHT22;2753;49.196;8.286;2024-02-23T04:17:22;7.30;99.90
5461;DHT22;2753;49.196;8.286;2024-02-23T04:19:53;7.30;99.90
5461;DHT22;2753;49.196;8.286;2024-02-23T04:22:18;7.30;99.90
5461;DHT22;2753;49.196;8.286;2024-02-23T04:24:44;7.20;99.90
5461;DHT22;2753;49.196;8.286;2024-02-23T04:27:10;7.20;99.90
5461;DHT22;2753;49.196;8.286;2024-02-23T04:29:35;7.20;99.90
5461;DHT22;2753;49.196;8.286;2024-02-23T04:32:01;7.10;99.90
5461;DHT22;2753;49.196;8.286;2024-02-23T04:34:27;7.10;99.90
5461;DHT22;2753;49.196;8.286;2024-02-23T04:36:53;7.10;99.90
5461;DHT22;2753;49.196;8.286;2024-02-23T04:39:19;7.10;99.90
5461;DHT22;2753;49.196;8.286;2024-02-23T04:41:45;7.00;99.90
5461;DHT22;2753;49.196;8.286;2024-02-23T04:44:10;7.10;99.90
5461;DHT22;2753;49.196;8.286;2024-02-23T04:46:36;7.00;99.90
5461;DHT22;2753;49.196;8.286;2024-02-23T04:49:02;7.00;99.90
5461;DHT22;2753;49.196;8.286;2024-02-23T04:51:28;7.00;99.90
5461;DHT22;2753;49.196;8.286;2024-02-23T04:53:53;7.00;99.90
5461;DHT22;2753;49.196;8.286;2024-02-23T04:56:19;7.00;99.90
5461;DHT22;2753;49.196;8.286;2024-02-23T04:58:46;7.00;99.90
5461;DHT22;2753;49.196;8.286;2024-02-23T05:01:12;7.10;99.90
5461;DHT22;2753;49.196;8.286;2024-02-23T05:03:41;7.10;99.90
5461;DHT22;2753;49.196;8.286;2024-02-23T05:06:07;7.10;99.90
5461;DHT22;2753;49.196;8.286;2024-02-23T05:08:32;7.10;99.90
5461;DHT22;2753;49.196;8.286;2024-02-23T05:10:58;7.10;99.90
5461;DHT22;2753;49.196;8.286;2024-02-23T05:13:24;7.10;99.90
5461;DHT22;2753;49.196;8.286;2024-02-23T05:15:50;7.00;99.90
5461;DHT22;2753;49.196;8.286;2024-02-23T05:18:15;7.00;99.90
5461;DHT22;2753;49.196;8.286;2024-02-23T05:20:41;7.00;99.90
5461;DHT22;2753;49.196;8.286;2024-02-23T05:23:07;6.90;99.90
5461;DHT22;2753;49.196;8.286;2024-02-23T05:25:33;6.90;99.90
5461;DHT22;2753;49.196;8.286;2024-02-23T05:27:58;6.90;99.90
5461;DHT22;2753;49.196;8.286;2024-02-23T05:30:24;6.90;99.90
5461;DHT22;2753;49.196;8.286;2024-02-23T05:32:52;6.80;99.90
5461;DHT22;2753;49.196;8.286;2024-02-23T05:35:17;6.80;99.90
5461;DHT22;2753;49.196;8.286;2024-02-23T05:37:43;6.80;99.90
5461;DHT22;2753;49.196;8.286;2024-02-23T05:40:09;6.80;99.90
5461;DHT22;2753;49.196;8.286;2024-02-23T05:42:38;6.80;99.90
5461;DHT22;2753;49.196;8.286;2024-02-23T05:45:04;6.80;99.90
5461;DHT22;2753;49.196;8.286;2024-02-23T05:47:31;6.80;99.90
5461;DHT22;2753;49.196;8.286;2024-02-23T05:49:57;6.80;99.90
5461;DHT22;2753;49.196;8.286;2024-02-23T05:52:22;6.80;99.90
5461;DHT22;2753;49.196;8.286;2024-02-23T05:54:48;6.80;99.90
5461;DHT22;2753;49.196;8.286;2024-02-23T05:57:14;6.70;99.90
5461;DHT22;2753;49.196;8.286;2024-02-23T05:59:39;6.60;99.90
5461;DHT22;2753;49.196;8.286;2024-02-23T06:02:05;6.60;99.90
5461;DHT22;2753;49.196;8.286;2024-02-23T06:04:31;6.60;99.90
5461;DHT22;2753;49.196;8.286;2024-02-23T06:06:57;6.50;99.90
5461;DHT22;2753;49.196;8.286;2024-02-23T06:09:23;6.50;99.90
5461;DHT22;2753;49.196;8.286;2024-02-23T06:11:48;6.60;99.90
5461;DHT22;2753;49.196;8.286;2024-02-23T06:14:14;6.60;99.90
5461;DHT22;2753;49.196;8.286;2024-02-23T06:16:40;6.60;99.90
5461;DHT22;2753;49.196;8.286;2024-02-23T06:19:06;6.60;99.90
5461;DHT22;2753;49.196;8.286;2024-02-23T06:21:31;6.60;99.90
5461;DHT22;2753;49.196;8.286;2024-02-23T06:23:58;6.50;99.90
5461;DHT22;2753;49.196;8.286;2024-02-23T06:26:23;6.40;99.90
5461;DHT22;2753;49.196;8.286;2024-02-23T06:28:49;6.50;99.90
5461;DHT22;2753;49.196;8.286;2024-02-23T06:31:15;6.40;99.90
5461;DHT22;2753;49.196;8.286;2024-02-23T06:33:40;6.50;99.90
5461;DHT22;2753;49.196;8.286;2024-02-23T06:36:07;6.50;99.90
5461;DHT22;2753;49.196;8.286;2024-02-23T06:38:34;6.50;99.90
5461;DHT22;2753;49.196;8.286;2024-02-23T06:40:59;6.50;99.90
5461;DHT22;2753;49.196;8.286;2024-02-23T06:43:25;6.40;99.90
5461;DHT22;2753;49.196;8.286;2024-02-23T06:45:51;6.40;99.90
5461;DHT22;2753;49.196;8.286;2024-02-23T06:48:18;6.40;99.90
5461;DHT22;2753;49.196;8.286;2024-02-23T06:50:44;6.50;99.90
5461;DHT22;2753;49.196;8.286;2024-02-23T06:53:10;6.50;99.90
5461;DHT22;2753;49.196;8.286;2024-02-23T06:55:36;6.50;99.90
5461;DHT22;2753;49.196;8.286;2024-02-23T06:58:02;6.50;99.90
5461;DHT22;2753;49.196;8.286;2024-02-23T07:00:33;6.50;99.90
5461;DHT22;2753;49.196;8.286;2024-02-23T07:02:58;6.50;99.90
5461;DHT22;2753;49.196;8.286;2024-02-23T07:05:25;6.50;99.90
5461;DHT22;2753;49.196;8.286;2024-02-23T07:07:51;6.60;99.90
5461;DHT22;2753;49.196;8.286;2024-02-23T07:10:16;6.60;99.90
5461;DHT22;2753;49.196;8.286;2024-02-23T07:12:43;6.60;99.90
5461;DHT22;2753;49.196;8.286;2024-02-23T07:15:10;6.50;99.90
5461;DHT22;2753;49.196;8.286;2024-02-23T07:17:35;6.50;99.90
5461;DHT22;2753;49.196;8.286;2024-02-23T07:20:01;6.50;99.90
5461;DHT22;2753;49.196;8.286;2024-02-23T07:22:33;6.50;99.90
5461;DHT22;2753;49.196;8.286;2024-02-23T07:24:59;6.50;99.90
5461;DHT22;2753;49.196;8.286;2024-02-23T07:27:26;6.50;99.90
5461;DHT22;2753;49.196;8.286;2024-02-23T07:29:52;6.50;99.90
5461;DHT22;2753;49.196;8.286;2024-02-23T07:32:18;6.50;99.90
5461;DHT22;2753;49.196;8.286;2024-02-23T07:34:44;6.60;99.90
5461;DHT22;2753;49.196;8.286;2024-02-23T07:37:09;6.60;99.90
5461;DHT22;2753;49.196;8.286;2024-02-23T07:39:35;6.70;99.90
5461;DHT22;2753;49.196;8.286;2024-02-23T07:42:04;6.70;99.90
5461;DHT22;2753;49.196;8.286;2024-02-23T07:44:31;6.80;99.90
5461;DHT22;2753;49.196;8.286;2024-02-23T07:46:57;6.90;99.90
5461;DHT22;2753;49.196;8.286;2024-02-23T07:49:24;7.00;99.90
5461;DHT22;2753;49.196;8.286;2024-02-23T07:51:50;7.20;99.90
5461;DHT22;2753;49.196;8.286;2024-02-23T07:54:16;7.30;99.90
5461;DHT22;2753;49.196;8.286;2024-02-23T07:56:42;7.30;99.90
5461;DHT22;2753;49.196;8.286;2024-02-23T07:59:07;7.40;99.90
5461;DHT22;2753;49.196;8.286;2024-02-23T08:01:33;7.40;99.90
5461;DHT22;2753;49.196;8.286;2024-02-23T08:03:59;7.40;99.90
5461;DHT22;2753;49.196;8.286;2024-02-23T08:06:25;7.40;99.90
5461;DHT22;2753;49.196;8.286;2024-02-23T08:08:51;7.30;99.90
5461;DHT22;2753;49.196;8.286;2024-02-23T08:11:19;7.40;99.90
5461;DHT22;2753;49.196;8.286;2024-02-23T08:13:44;7.50;99.90
5461;DHT22;2753;49.196;8.286;2024-02-23T08:16:10;7.50;99.90
5461;DHT22;2753;49.196;8.286;2024-02-23T08:18:36;7.50;99.90
5461;DHT22;2753;49.196;8.286;2024-02-23T08:21:02;7.50;99.90
5461;DHT22;2753;49.196;8.286;2024-02-23T08:23:29;7.50;99.90
5461;DHT22;2753;49.196;8.286;2024-02-23T08:25:55;7.50;99.90
5461;DHT22;2753;49.196;8.286;2024-02-23T08:28:22;7.50;99.90
5461;DHT22;2753;49.196;8.286;2024-02-23T08:30:48;7.50;99.90
5461;DHT22;2753;49.196;8.286;2024-02-23T08:33:14;7.50;99.90
5461;DHT22;2753;49.196;8.286;2024-02-23T08:35:40;7.40;99.90
5461;DHT22;2753;49.196;8.286;2024-02-23T08:38:05;7.50;99.90
5461;DHT22;2753;49.196;8.286;2024-02-23T08:40:31;7.50;99.90
5461;DHT22;2753;49.196;8.286;2024-02-23T08:42:57;7.50;99.90
5461;DHT22;2753;49.196;8.286;2024-02-23T08:45:22;7.60;99.90
5461;DHT22;2753;49.196;8.286;2024-02-23T08:47:48;7.60;99.90
5461;DHT22;2753;49.196;8.286;2024-02-23T08:50:14;7.60;99.90
5461;DHT22;2753;49.196;8.286;2024-02-23T08:52:40;7.70;99.90
5461;DHT22;2753;49.196;8.286;2024-02-23T08:55:05;7.70;99.90
5461;DHT22;2753;49.196;8.286;2024-02-23T08:57:31;7.80;99.90
5461;DHT22;2753;49.196;8.286;2024-02-23T08:59:57;7.90;99.90
5461;DHT22;2753;49.196;8.286;2024-02-23T09:02:26;7.90;99.90
5461;DHT22;2753;49.196;8.286;2024-02-23T09:04:52;7.90;99.90
5461;DHT22;2753;49.196;8.286;2024-02-23T09:07:17;7.90;99.90
5461;DHT22;2753;49.196;8.286;2024-02-23T09:09:46;8.00;99.90
5461;DHT22;2753;49.196;8.286;2024-02-23T09:12:12;8.00;99.90
5461;DHT22;2753;49.196;8.286;2024-02-23T09:14:40;8.00;99.80
5461;DHT22;2753;49.196;8.286;2024-02-23T09:17:06;8.10;99.90
5461;DHT22;2753;49.196;8.286;2024-02-23T09:19:34;8.00;99.70
5461;DHT22;2753;49.196;8.286;2024-02-23T09:21:59;8.00;99.90
5461;DHT22;2753;49.196;8.286;2024-02-23T09:24:26;8.10;99.90
5461;DHT22;2753;49.196;8.286;2024-02-23T09:26:51;8.10;99.70
5461;DHT22;2753;49.196;8.286;2024-02-23T09:29:18;8.10;99.40
5461;DHT22;2753;49.196;8.286;2024-02-23T09:31:43;8.10;99.40
5461;DHT22;2753;49.196;8.286;2024-02-23T09:34:10;8.20;99.40
5461;DHT22;2753;49.196;8.286;2024-02-23T09:36:35;8.10;99.20
5461;DHT22;2753;49.196;8.286;2024-02-23T09:39:01;8.20;99.30
5461;DHT22;2753;49.196;8.286;2024-02-23T09:41:27;8.30;99.70
5461;DHT22;2753;49.196;8.286;2024-02-23T09:43:58;8.40;99.30
5461;DHT22;2753;49.196;8.286;2024-02-23T09:46:25;8.50;99.30
5461;DHT22;2753;49.196;8.286;2024-02-23T09:48:51;8.60;99.00
5461;DHT22;2753;49.196;8.286;2024-02-23T09:51:17;8.90;99.00
5461;DHT22;2753;49.196;8.286;2024-02-23T09:53:43;9.10;98.50
5461;DHT22;2753;49.196;8.286;2024-02-23T09:56:10;9.30;98.60
5461;DHT22;2753;49.196;8.286;2024-02-23T09:58:36;9.50;98.90
5461;DHT22;2753;49.196;8.286;2024-02-23T10:01:03;9.70;98.40
5461;DHT22;2753;49.196;8.286;2024-02-23T10:03:30;9.80;98.10
5461;DHT22;2753;49.196;8.286;2024-02-23T10:05:59;10.00;97.50
5461;DHT22;2753;49.196;8.286;2024-02-23T10:08:27;10.20;96.80
5461;DHT22;2753;49.196;8.286;2024-02-23T10:10:53;10.30;97.50
5461;DHT22;2753;49.196;8.286;2024-02-23T10:13:29;10.50;97.20
5461;DHT22;2753;49.196;8.286;2024-02-23T10:15:55;10.60;96.50
5461;DHT22;2753;49.196;8.286;2024-02-23T10:18:20;10.80;96.60
5461;DHT22;2753;49.196;8.286;2024-02-23T10:20:47;10.90;96.10
5461;DHT22;2753;49.196;8.286;2024-02-23T10:23:13;11.00;96.00
5461;DHT22;2753;49.196;8.286;2024-02-23T10:25:39;11.20;96.00
5461;DHT22;2753;49.196;8.286;2024-02-23T10:28:05;11.40;95.20
5461;DHT22;2753;49.196;8.286;2024-02-23T10:30:32;11.40;95.30
5461;DHT22;2753;49.196;8.286;2024-02-23T10:32:58;11.50;95.10
5461;DHT22;2753;49.196;8.286;2024-02-23T10:35:24;11.50;95.80
5461;DHT22;2753;49.196;8.286;2024-02-23T10:37:52;11.70;95.80
5461;DHT22;2753;49.196;8.286;2024-02-23T10:40:20;11.70;95.20
5461;DHT22;2753;49.196;8.286;2024-02-23T10:42:47;11.40;94.80
5461;DHT22;2753;49.196;8.286;2024-02-23T10:45:22;11.30;95.30
5461;DHT22;2753;49.196;8.286;2024-02-23T10:47:48;11.30;95.00
5461;DHT22;2753;49.196;8.286;2024-02-23T10:50:16;11.40;94.90
5461;DHT22;2753;49.196;8.286;2024-02-23T10:52:43;11.40;94.80
5461;DHT22;2753;49.196;8.286;2024-02-23T10:55:09;11.30;94.70
5461;DHT22;2753;49.196;8.286;2024-02-23T10:57:36;11.50;94.60
5461;DHT22;2753;49.196;8.286;2024-02-23T11:00:02;11.80;94.20
5461;DHT22;2753;49.196;8.286;2024-02-23T11:02:38;11.90;93.80
5461;DHT22;2753;49.196;8.286;2024-02-23T11:05:05;12.00;94.50
5461;DHT22;2753;49.196;8.286;2024-02-23T11:07:38;12.00;94.10
5461;DHT22;2753;49.196;8.286;2024-02-23T11:10:05;12.30;94.10
5461;DHT22;2753;49.196;8.286;2024-02-23T11:12:35;12.50;93.60
5461;DHT22;2753;49.196;8.286;2024-02-23T11:15:01;12.50;93.70
5461;DHT22;2753;49.196;8.286;2024-02-23T11:17:32;12.60;93.60
5461;DHT22;2753;49.196;8.286;2024-02-23T11:20:02;12.70;93.30
5461;DHT22;2753;49.196;8.286;2024-02-23T11:22:33;12.50;92.80
5461;DHT22;2753;49.196;8.286;2024-02-23T11:25:09;12.30;93.80
5461;DHT22;2753;49.196;8.286;2024-02-23T11:27:37;12.10;93.50
5461;DHT22;2753;49.196;8.286;2024-02-23T11:30:04;12.00;93.60
5461;DHT22;2753;49.196;8.286;2024-02-23T11:32:47;11.90;93.90
5461;DHT22;2753;49.196;8.286;2024-02-23T11:35:15;11.80;93.60
5461;DHT22;2753;49.196;8.286;2024-02-23T11:37:59;11.60;93.20
5461;DHT22;2753;49.196;8.286;2024-02-23T11:40:32;11.40;93.50
5461;DHT22;2753;49.196;8.286;2024-02-23T11:42:59;11.40;94.20
5461;DHT22;2753;49.196;8.286;2024-02-23T11:45:30;11.40;94.80
5461;DHT22;2753;49.196;8.286;2024-02-23T11:47:59;11.40;94.70
5461;DHT22;2753;49.196;8.286;2024-02-23T11:50:25;11.30;94.70
5461;DHT22;2753;49.196;8.286;2024-02-23T11:52:50;11.20;94.50
5461;DHT22;2753;49.196;8.286;2024-02-23T11:55:19;11.20;95.20
5461;DHT22;2753;49.196;8.286;2024-02-23T11:57:48;11.10;94.20
5461;DHT22;2753;49.196;8.286;2024-02-23T12:00:15;11.00;94.70
5461;DHT22;2753;49.196;8.286;2024-02-23T12:02:40;10.90;94.80
5461;DHT22;2753;49.196;8.286;2024-02-23T12:05:06;10.80;95.10
5461;DHT22;2753;49.196;8.286;2024-02-23T12:07:33;10.80;94.80
5461;DHT22;2753;49.196;8.286;2024-02-23T12:10:00;10.90;95.20
5461;DHT22;2753;49.196;8.286;2024-02-23T12:12:26;10.90;95.30
5461;DHT22;2753;49.196;8.286;2024-02-23T12:14:52;10.80;95.10
5461;DHT22;2753;49.196;8.286;2024-02-23T12:17:18;10.80;95.40
5461;DHT22;2753;49.196;8.286;2024-02-23T12:19:43;11.00;95.30
5461;DHT22;2753;49.196;8.286;2024-02-23T12:22:12;11.20;94.50
5461;DHT22;2753;49.196;8.286;2024-02-23T12:24:40;11.10;93.70
5461;DHT22;2753;49.196;8.286;2024-02-23T12:27:07;11.00;94.50
5461;DHT22;2753;49.196;8.286;2024-02-23T12:29:36;11.10;94.20
5461;DHT22;2753;49.196;8.286;2024-02-23T12:32:05;11.10;94.00
5461;DHT22;2753;49.196;8.286;2024-02-23T12:34:32;11.00;93.80
5461;DHT22;2753;49.196;8.286;2024-02-23T12:36:57;11.10;93.60
5461;DHT22;2753;49.196;8.286;2024-02-23T12:39:23;11.20;94.30
5461;DHT22;2753;49.196;8.286;2024-02-23T12:41:49;11.30;94.50
5461;DHT22;2753;49.196;8.286;2024-02-23T12:44:16;11.30;94.30
5461;DHT22;2753;49.196;8.286;2024-02-23T12:46:42;11.20;94.20
5461;DHT22;2753;49.196;8.286;2024-02-23T12:49:07;11.20;94.00
5461;DHT22;2753;49.196;8.286;2024-02-23T12:51:33;11.00;94.00
5461;DHT22;2753;49.196;8.286;2024-02-23T12:54:00;11.40;94.20
5461;DHT22;2753;49.196;8.286;2024-02-23T12:56:25;11.40;93.50
5461;DHT22;2753;49.196;8.286;2024-02-23T12:58:51;11.30;93.40
5461;DHT22;2753;49.196;8.286;2024-02-23T13:01:19;11.20;93.80
5461;DHT22;2753;49.196;8.286;2024-02-23T13:03:45;11.20;93.90
5461;DHT22;2753;49.196;8.286;2024-02-23T13:06:11;11.00;94.00
5461;DHT22;2753;49.196;8.286;2024-02-23T13:08:36;10.90;94.00
5461;DHT22;2753;49.196;8.286;2024-02-23T13:11:04;10.90;94.20
5461;DHT22;2753;49.196;8.286;2024-02-23T13:13:30;10.90;94.20
5461;DHT22;2753;49.196;8.286;2024-02-23T13:15:56;10.90;94.20
5461;DHT22;2753;49.196;8.286;2024-02-23T13:18:22;10.80;94.30
5461;DHT22;2753;49.196;8.286;2024-02-23T13:20:48;10.90;94.70
5461;DHT22;2753;49.196;8.286;2024-02-23T13:23:14;10.80;94.60
5461;DHT22;2753;49.196;8.286;2024-02-23T13:25:41;10.90;94.50
5461;DHT22;2753;49.196;8.286;2024-02-23T13:28:07;10.90;94.70
5461;DHT22;2753;49.196;8.286;2024-02-23T13:30:34;10.80;94.60
5461;DHT22;2753;49.196;8.286;2024-02-23T13:33:00;10.80;94.30
5461;DHT22;2753;49.196;8.286;2024-02-23T13:35:26;10.70;94.60
5461;DHT22;2753;49.196;8.286;2024-02-23T13:37:52;10.70;94.90
5461;DHT22;2753;49.196;8.286;2024-02-23T13:40:21;10.70;94.20
5461;DHT22;2753;49.196;8.286;2024-02-23T13:42:47;10.60;93.80
5461;DHT22;2753;49.196;8.286;2024-02-23T13:45:15;10.60;93.80
5461;DHT22;2753;49.196;8.286;2024-02-23T13:47:42;10.60;94.20
5461;DHT22;2753;49.196;8.286;2024-02-23T13:50:10;10.70;94.60
5461;DHT22;2753;49.196;8.286;2024-02-23T13:52:36;10.70;94.30
5461;DHT22;2753;49.196;8.286;2024-02-23T13:55:02;10.80;94.30
5461;DHT22;2753;49.196;8.286;2024-02-23T13:57:28;10.80;94.00
5461;DHT22;2753;49.196;8.286;2024-02-23T13:59:54;10.80;94.10
5461;DHT22;2753;49.196;8.286;2024-02-23T14:02:25;11.10;93.40
5461;DHT22;2753;49.196;8.286;2024-02-23T14:04:52;11.10;93.70
5461;DHT22;2753;49.196;8.286;2024-02-23T14:07:18;11.00;93.70
5461;DHT22;2753;49.196;8.286;2024-02-23T14:09:44;10.90;94.00
5461;DHT22;2753;49.196;8.286;2024-02-23T14:12:09;11.30;93.50
5461;DHT22;2753;49.196;8.286;2024-02-23T14:14:35;11.40;92.80
5461;DHT22;2753;49.196;8.286;2024-02-23T14:17:01;11.30;92.30
5461;DHT22;2753;49.196;8.286;2024-02-23T14:19:26;11.30;93.30
5461;DHT22;2753;49.196;8.286;2024-02-23T14:21:52;11.20;93.10
5461;DHT22;2753;49.196;8.286;2024-02-23T14:24:18;11.20;93.70
5461;DHT22;2753;49.196;8.286;2024-02-23T14:26:43;11.20;93.90
5461;DHT22;2753;49.196;8.286;2024-02-23T14:29:09;11.10;93.40
5461;DHT22;2753;49.196;8.286;2024-02-23T14:31:35;11.10;94.00
5461;DHT22;2753;49.196;8.286;2024-02-23T14:34:01;11.20;94.00
5461;DHT22;2753;49.196;8.286;2024-02-23T14:36:27;11.40;94.30
5461;DHT22;2753;49.196;8.286;2024-02-23T14:38:52;11.90;94.00
5461;DHT22;2753;49.196;8.286;2024-02-23T14:41:18;12.50;93.50
5461;DHT22;2753;49.196;8.286;2024-02-23T14:43:44;13.00;92.10
5461;DHT22;2753;49.196;8.286;2024-02-23T14:46:10;13.40;91.60
5461;DHT22;2753;49.196;8.286;2024-02-23T14:48:36;13.70;91.60
5461;DHT22;2753;49.196;8.286;2024-02-23T14:51:01;13.80;91.70
5461;DHT22;2753;49.196;8.286;2024-02-23T14:53:30;13.70;92.00
5461;DHT22;2753;49.196;8.286;2024-02-23T14:55:55;13.60;92.20
5461;DHT22;2753;49.196;8.286;2024-02-23T14:58:21;13.40;92.10
5461;DHT22;2753;49.196;8.286;2024-02-23T15:00:47;13.30;91.20
5461;DHT22;2753;49.196;8.286;2024-02-23T15:03:13;13.20;91.00
5461;DHT22;2753;49.196;8.286;2024-02-23T15:05:39;13.00;91.40
5461;DHT22;2753;49.196;8.286;2024-02-23T15:08:06;13.00;90.90
5461;DHT22;2753;49.196;8.286;2024-02-23T15:10:33;13.20;90.80
5461;DHT22;2753;49.196;8.286;2024-02-23T15:12:59;13.60;90.80
5461;DHT22;2753;49.196;8.286;2024-02-23T15:15:25;13.70;89.20
5461;DHT22;2753;49.196;8.286;2024-02-23T15:17:50;13.70;89.50
5461;DHT22;2753;49.196;8.286;2024-02-23T15:20:17;13.80;90.00
5461;DHT22;2753;49.196;8.286;2024-02-23T15:22:43;13.70;89.00
5461;DHT22;2753;49.196;8.286;2024-02-23T15:25:12;13.60;90.40
5461;DHT22;2753;49.196;8.286;2024-02-23T15:27:39;13.60;90.20
5461;DHT22;2753;49.196;8.286;2024-02-23T15:30:07;14.00;90.70
5461;DHT22;2753;49.196;8.286;2024-02-23T15:32:34;14.20;89.60
5461;DHT22;2753;49.196;8.286;2024-02-23T15:35:00;14.20;88.50
5461;DHT22;2753;49.196;8.286;2024-02-23T15:37:28;14.40;88.30
5461;DHT22;2753;49.196;8.286;2024-02-23T15:39:54;14.30;88.80
5461;DHT22;2753;49.196;8.286;2024-02-23T15:42:19;14.40;87.40
5461;DHT22;2753;49.196;8.286;2024-02-23T15:44:46;14.30;86.60
5461;DHT22;2753;49.196;8.286;2024-02-23T15:47:12;14.20;87.20
5461;DHT22;2753;49.196;8.286;2024-02-23T15:49:38;14.00;88.90
5461;DHT22;2753;49.196;8.286;2024-02-23T15:52:04;14.00;90.30
5461;DHT22;2753;49.196;8.286;2024-02-23T15:54:30;13.90;90.50
5461;DHT22;2753;49.196;8.286;2024-02-23T15:56:57;13.60;90.30
5461;DHT22;2753;49.196;8.286;2024-02-23T15:59:23;13.60;90.80
5461;DHT22;2753;49.196;8.286;2024-02-23T16:01:49;13.20;90.00
5461;DHT22;2753;49.196;8.286;2024-02-23T16:04:15;13.10;90.50
5461;DHT22;2753;49.196;8.286;2024-02-23T16:06:40;13.00;90.30